sensor_id;sensor_type;location;lat;lon;timestamp;P1;durP1;ratioP1;P2;durP2;ratioP2
39924;SDS011;25592;49.986;11.618;2023-11-21T00:02:31;4.80;;;1.75;;
39924;SDS011;25592;49.986;11.618;2023-11-21T00:05:17;6.30;;;1.52;;
39924;SDS011;25592;49.986;11.618;2023-11-21T00:08:02;7.05;;;2.13;;
39924;SDS011;25592;49.986;11.618;2023-11-21T00:10:48;10.02;;;2.25;;
39924;SDS011;25592;49.986;11.618;2023-11-21T00:13:33;5.57;;;1.67;;
39924;SDS011;25592;49.986;11.618;2023-11-21T00:16:19;6.50;;;2.25;;
39924;SDS011;25592;49.986;11.618;2023-11-21T00:19:04;6.68;;;1.88;;
39924;SDS011;25592;49.986;11.618;2023-11-21T00:21:49;3.25;;;1.63;;
39924;SDS011;25592;49.986;11.618;2023-11-21T00:24:35;5.97;;;2.13;;
39924;SDS011;25592;49.986;11.618;2023-11-21T00:27:20;6.75;;;1.80;;
39924;SDS011;25592;49.986;11.618;2023-11-21T00:30:06;4.95;;;1.70;;
39924;SDS011;25592;49.986;11.618;2023-11-21T00:32:51;7.05;;;1.67;;
39924;SDS011;25592;49.986;11.618;2023-11-21T00:35:37;6.10;;;1.58;;
39924;SDS011;25592;49.986;11.618;2023-11-21T00:38:22;8.73;;;2.10;;
39924;SDS011;25592;49.986;11.618;2023-11-21T00:41:08;3.88;;;1.60;;
39924;SDS011;25592;49.986;11.618;2023-11-21T00:43:53;5.18;;;2.03;;
39924;SDS011;25592;49.986;11.618;2023-11-21T00:46:40;5.20;;;2.00;;
39924;SDS011;25592;49.986;11.618;2023-11-21T00:49:25;3.63;;;1.83;;
39924;SDS011;25592;49.986;11.618;2023-11-21T00:52:10;4.50;;;2.13;;
39924;SDS011;25592;49.986;11.618;2023-11-21T00:54:56;8.05;;;2.80;;
39924;SDS011;25592;49.986;11.618;2023-11-21T00:57:44;4.40;;;1.95;;
39924;SDS011;25592;49.986;11.618;2023-11-21T01:00:30;3.88;;;1.67;;
39924;SDS011;25592;49.986;11.618;2023-11-21T01:03:15;5.90;;;1.83;;
39924;SDS011;25592;49.986;11.618;2023-11-21T01:06:01;2.92;;;1.25;;
39924;SDS011;25592;49.986;11.618;2023-11-21T01:08:46;6.05;;;1.63;;
39924;SDS011;25592;49.986;11.618;2023-11-21T01:11:32;3.42;;;1.67;;
39924;SDS011;25592;49.986;11.618;2023-11-21T01:14:20;7.05;;;2.50;;
39924;SDS011;25592;49.986;11.618;2023-11-21T01:17:06;6.25;;;1.58;;
39924;SDS011;25592;49.986;11.618;2023-11-21T01:19:52;5.88;;;1.75;;
39924;SDS011;25592;49.986;11.618;2023-11-21T01:22:37;3.65;;;1.35;;
39924;SDS011;25592;49.986;11.618;2023-11-21T01:25:23;6.38;;;2.58;;
39924;SDS011;25592;49.986;11.618;2023-11-21T01:28:09;3.67;;;1.60;;
39924;SDS011;25592;49.986;11.618;2023-11-21T01:30:54;3.78;;;1.63;;
39924;SDS011;25592;49.986;11.618;2023-11-21T01:33:41;5.80;;;1.88;;
39924;SDS011;25592;49.986;11.618;2023-11-21T01:36:30;6.82;;;3.00;;
39924;SDS011;25592;49.986;11.618;2023-11-21T01:39:17;6.75;;;1.80;;
39924;SDS011;25592;49.986;11.618;2023-11-21T01:42:08;4.63;;;1.20;;
39924;SDS011;25592;49.986;11.618;2023-11-21T01:44:53;4.18;;;1.48;;
39924;SDS011;25592;49.986;11.618;2023-11-21T01:47:39;5.00;;;1.88;;
39924;SDS011;25592;49.986;11.618;2023-11-21T01:50:26;4.57;;;1.33;;
39924;SDS011;25592;49.986;11.618;2023-11-21T01:53:12;3.72;;;1.58;;
39924;SDS011;25592;49.986;11.618;2023-11-21T01:55:58;6.72;;;2.38;;
39924;SDS011;25592;49.986;11.618;2023-11-21T01:58:45;4.13;;;1.40;;
39924;SDS011;25592;49.986;11.618;2023-11-21T02:01:32;3.33;;;1.23;;
39924;SDS011;25592;49.986;11.618;2023-11-21T02:04:18;5.55;;;1.55;;
39924;SDS011;25592;49.986;11.618;2023-11-21T02:07:04;3.30;;;1.63;;
39924;SDS011;25592;49.986;11.618;2023-11-21T02:09:50;3.67;;;1.40;;
39924;SDS011;25592;49.986;11.618;2023-11-21T02:12:36;4.05;;;1.50;;
39924;SDS011;25592;49.986;11.618;2023-11-21T02:15:23;3.33;;;1.17;;
39924;SDS011;25592;49.986;11.618;2023-11-21T02:18:12;3.03;;;1.30;;
39924;SDS011;25592;49.986;11.618;2023-11-21T02:20:57;2.50;;;1.20;;
39924;SDS011;25592;49.986;11.618;2023-11-21T02:23:43;4.45;;;1.35;;
39924;SDS011;25592;49.986;11.618;2023-11-21T02:26:29;3.78;;;1.35;;
39924;SDS011;25592;49.986;11.618;2023-11-21T02:29:14;16.83;;;1.77;;
39924;SDS011;25592;49.986;11.618;2023-11-21T02:32:02;4.38;;;1.58;;
39924;SDS011;25592;49.986;11.618;2023-11-21T02:34:48;5.03;;;1.90;;
39924;SDS011;25592;49.986;11.618;2023-11-21T02:37:34;2.78;;;1.60;;
39924;SDS011;25592;49.986;11.618;2023-11-21T02:40:20;3.65;;;1.55;;
39924;SDS011;25592;49.986;11.618;2023-11-21T02:43:05;5.20;;;1.92;;
39924;SDS011;25592;49.986;11.618;2023-11-21T02:45:51;5.03;;;1.90;;
39924;SDS011;25592;49.986;11.618;2023-11-21T02:48:36;6.80;;;1.58;;
39924;SDS011;25592;49.986;11.618;2023-11-21T02:51:22;3.15;;;1.67;;
39924;SDS011;25592;49.986;11.618;2023-11-21T02:54:07;4.20;;;1.60;;
39924;SDS011;25592;49.986;11.618;2023-11-21T02:56:53;4.97;;;1.88;;
39924;SDS011;25592;49.986;11.618;2023-11-21T02:59:38;4.80;;;1.70;;
39924;SDS011;25592;49.986;11.618;2023-11-21T03:02:24;2.72;;;1.33;;
39924;SDS011;25592;49.986;11.618;2023-11-21T03:05:09;5.05;;;1.70;;
39924;SDS011;25592;49.986;11.618;2023-11-21T03:07:55;4.43;;;1.60;;
39924;SDS011;25592;49.986;11.618;2023-11-21T03:10:40;2.53;;;1.35;;
39924;SDS011;25592;49.986;11.618;2023-11-21T03:13:26;10.45;;;2.78;;
39924;SDS011;25592;49.986;11.618;2023-11-21T03:16:13;4.80;;;1.70;;
39924;SDS011;25592;49.986;11.618;2023-11-21T03:18:58;2.90;;;1.02;;
39924;SDS011;25592;49.986;11.618;2023-11-21T03:21:44;3.42;;;1.30;;
39924;SDS011;25592;49.986;11.618;2023-11-21T03:24:30;3.13;;;1.27;;
39924;SDS011;25592;49.986;11.618;2023-11-21T03:27:15;5.72;;;1.75;;
39924;SDS011;25592;49.986;11.618;2023-11-21T03:30:01;6.85;;;1.70;;
39924;SDS011;25592;49.986;11.618;2023-11-21T03:32:48;4.40;;;1.70;;
39924;SDS011;25592;49.986;11.618;2023-11-21T03:35:34;4.93;;;1.60;;
39924;SDS011;25592;49.986;11.618;2023-11-21T03:38:19;4.07;;;1.65;;
39924;SDS011;25592;49.986;11.618;2023-11-21T03:41:05;5.28;;;1.42;;
39924;SDS011;25592;49.986;11.618;2023-11-21T03:43:51;3.65;;;1.35;;
39924;SDS011;25592;49.986;11.618;2023-11-21T03:46:36;4.05;;;1.50;;
39924;SDS011;25592;49.986;11.618;2023-11-21T03:49:22;4.28;;;1.70;;
39924;SDS011;25592;49.986;11.618;2023-11-21T03:52:07;2.97;;;1.60;;
39924;SDS011;25592;49.986;11.618;2023-11-21T03:54:54;3.35;;;1.42;;
39924;SDS011;25592;49.986;11.618;2023-11-21T03:57:40;5.80;;;1.70;;
39924;SDS011;25592;49.986;11.618;2023-11-21T04:00:26;3.90;;;1.50;;
39924;SDS011;25592;49.986;11.618;2023-11-21T04:03:12;4.95;;;1.90;;
39924;SDS011;25592;49.986;11.618;2023-11-21T04:05:58;5.97;;;2.03;;
39924;SDS011;25592;49.986;11.618;2023-11-21T04:08:44;2.95;;;1.42;;
39924;SDS011;25592;49.986;11.618;2023-11-21T04:11:30;5.47;;;1.92;;
39924;SDS011;25592;49.986;11.618;2023-11-21T04:14:15;4.05;;;1.80;;
39924;SDS011;25592;49.986;11.618;2023-11-21T04:17:01;3.42;;;1.60;;
39924;SDS011;25592;49.986;11.618;2023-11-21T04:19:49;5.90;;;1.77;;
39924;SDS011;25592;49.986;11.618;2023-11-21T04:22:38;5.72;;;1.92;;
39924;SDS011;25592;49.986;11.618;2023-11-21T04:25:30;3.42;;;1.60;;
39924;SDS011;25592;49.986;11.618;2023-11-21T04:28:16;6.53;;;2.45;;
39924;SDS011;25592;49.986;11.618;2023-11-21T04:31:01;5.78;;;2.22;;
39924;SDS011;25592;49.986;11.618;2023-11-21T04:33:47;4.03;;;1.90;;
39924;SDS011;25592;49.986;11.618;2023-11-21T04:36:32;4.07;;;2.88;;
39924;SDS011;25592;49.986;11.618;2023-11-21T04:39:17;3.90;;;1.77;;
39924;SDS011;25592;49.986;11.618;2023-11-21T04:42:03;3.97;;;1.98;;
39924;SDS011;25592;49.986;11.618;2023-11-21T04:44:49;4.90;;;2.20;;
39924;SDS011;25592;49.986;11.618;2023-11-21T04:47:35;3.80;;;1.80;;
39924;SDS011;25592;49.986;11.618;2023-11-21T04:50:20;7.30;;;2.78;;
39924;SDS011;25592;49.986;11.618;2023-11-21T04:53:06;5.20;;;2.15;;
39924;SDS011;25592;49.986;11.618;2023-11-21T04:55:51;9.30;;;4.18;;
39924;SDS011;25592;49.986;11.618;2023-11-21T04:58:37;4.55;;;2.50;;
39924;SDS011;25592;49.986;11.618;2023-11-21T05:01:24;3.35;;;2.00;;
39924;SDS011;25592;49.986;11.618;2023-11-21T05:04:10;5.20;;;2.85;;
39924;SDS011;25592;49.986;11.618;2023-11-21T05:06:55;4.40;;;2.47;;
39924;SDS011;25592;49.986;11.618;2023-11-21T05:09:44;6.38;;;2.33;;
39924;SDS011;25592;49.986;11.618;2023-11-21T05:12:31;8.18;;;3.03;;
39924;SDS011;25592;49.986;11.618;2023-11-21T05:15:23;5.68;;;3.15;;
39924;SDS011;25592;49.986;11.618;2023-11-21T05:18:08;5.18;;;2.78;;
39924;SDS011;25592;49.986;11.618;2023-11-21T05:20:55;6.30;;;2.97;;
39924;SDS011;25592;49.986;11.618;2023-11-21T05:23:41;4.97;;;3.25;;
39924;SDS011;25592;49.986;11.618;2023-11-21T05:26:26;6.65;;;3.70;;
39924;SDS011;25592;49.986;11.618;2023-11-21T05:29:12;5.10;;;3.15;;
39924;SDS011;25592;49.986;11.618;2023-11-21T05:31:57;6.60;;;3.72;;
39924;SDS011;25592;49.986;11.618;2023-11-21T05:34:43;8.90;;;3.97;;
39924;SDS011;25592;49.986;11.618;2023-11-21T05:37:28;6.05;;;3.63;;
39924;SDS011;25592;49.986;11.618;2023-11-21T05:40:14;9.55;;;4.05;;
39924;SDS011;25592;49.986;11.618;2023-11-21T05:43:00;7.25;;;3.92;;
39924;SDS011;25592;49.986;11.618;2023-11-21T05:45:46;8.07;;;4.25;;
39924;SDS011;25592;49.986;11.618;2023-11-21T05:48:32;8.98;;;4.13;;
39924;SDS011;25592;49.986;11.618;2023-11-21T05:51:18;8.35;;;4.55;;
39924;SDS011;25592;49.986;11.618;2023-11-21T05:54:03;10.13;;;5.13;;
39924;SDS011;25592;49.986;11.618;2023-11-21T05:56:49;9.40;;;5.45;;
39924;SDS011;25592;49.986;11.618;2023-11-21T05:59:35;10.18;;;5.90;;
39924;SDS011;25592;49.986;11.618;2023-11-21T06:02:20;18.90;;;9.07;;
39924;SDS011;25592;49.986;11.618;2023-11-21T06:05:06;12.43;;;7.00;;
39924;SDS011;25592;49.986;11.618;2023-11-21T06:07:53;12.70;;;7.63;;
39924;SDS011;25592;49.986;11.618;2023-11-21T06:10:43;11.98;;;5.95;;
39924;SDS011;25592;49.986;11.618;2023-11-21T06:13:34;15.50;;;7.07;;
39924;SDS011;25592;49.986;11.618;2023-11-21T06:16:19;9.73;;;4.93;;
39924;SDS011;25592;49.986;11.618;2023-11-21T06:19:06;11.18;;;5.32;;
39924;SDS011;25592;49.986;11.618;2023-11-21T06:21:51;9.63;;;5.05;;
39924;SDS011;25592;49.986;11.618;2023-11-21T06:24:36;9.93;;;5.45;;
39924;SDS011;25592;49.986;11.618;2023-11-21T06:27:22;9.80;;;5.38;;
39924;SDS011;25592;49.986;11.618;2023-11-21T06:30:09;9.85;;;5.55;;
39924;SDS011;25592;49.986;11.618;2023-11-21T06:32:56;9.00;;;5.82;;
39924;SDS011;25592;49.986;11.618;2023-11-21T06:35:41;10.40;;;6.03;;
39924;SDS011;25592;49.986;11.618;2023-11-21T06:38:27;8.23;;;5.10;;
39924;SDS011;25592;49.986;11.618;2023-11-21T06:41:14;7.35;;;4.40;;
39924;SDS011;25592;49.986;11.618;2023-11-21T06:44:00;7.80;;;4.88;;
39924;SDS011;25592;49.986;11.618;2023-11-21T06:46:45;7.40;;;4.45;;
39924;SDS011;25592;49.986;11.618;2023-11-21T06:49:31;8.23;;;4.05;;
39924;SDS011;25592;49.986;11.618;2023-11-21T06:52:16;7.15;;;4.22;;
39924;SDS011;25592;49.986;11.618;2023-11-21T06:55:03;8.88;;;4.65;;
39924;SDS011;25592;49.986;11.618;2023-11-21T06:57:49;6.70;;;4.53;;
39924;SDS011;25592;49.986;11.618;2023-11-21T07:00:35;6.97;;;4.22;;
39924;SDS011;25592;49.986;11.618;2023-11-21T07:03:21;7.10;;;4.53;;
39924;SDS011;25592;49.986;11.618;2023-11-21T07:06:06;9.50;;;4.85;;
39924;SDS011;25592;49.986;11.618;2023-11-21T07:08:52;7.85;;;4.25;;
39924;SDS011;25592;49.986;11.618;2023-11-21T07:11:38;8.18;;;4.88;;
39924;SDS011;25592;49.986;11.618;2023-11-21T07:14:27;9.40;;;4.43;;
39924;SDS011;25592;49.986;11.618;2023-11-21T07:17:13;9.20;;;4.95;;
39924;SDS011;25592;49.986;11.618;2023-11-21T07:19:58;8.13;;;4.60;;
39924;SDS011;25592;49.986;11.618;2023-11-21T07:22:44;10.88;;;5.10;;
39924;SDS011;25592;49.986;11.618;2023-11-21T07:25:30;7.88;;;5.03;;
39924;SDS011;25592;49.986;11.618;2023-11-21T07:28:16;9.43;;;6.03;;
39924;SDS011;25592;49.986;11.618;2023-11-21T07:31:01;10.75;;;6.53;;
39924;SDS011;25592;49.986;11.618;2023-11-21T07:33:48;14.55;;;6.72;;
39924;SDS011;25592;49.986;11.618;2023-11-21T07:36:33;9.65;;;6.30;;
39924;SDS011;25592;49.986;11.618;2023-11-21T07:39:19;9.48;;;5.80;;
39924;SDS011;25592;49.986;11.618;2023-11-21T07:42:04;9.20;;;5.78;;
39924;SDS011;25592;49.986;11.618;2023-11-21T07:44:50;10.65;;;6.22;;
39924;SDS011;25592;49.986;11.618;2023-11-21T07:47:35;10.95;;;6.28;;
39924;SDS011;25592;49.986;11.618;2023-11-21T07:50:21;9.73;;;5.57;;
39924;SDS011;25592;49.986;11.618;2023-11-21T07:53:07;8.57;;;5.28;;
39924;SDS011;25592;49.986;11.618;2023-11-21T07:55:54;10.40;;;5.00;;
39924;SDS011;25592;49.986;11.618;2023-11-21T07:58:40;9.20;;;5.03;;
39924;SDS011;25592;49.986;11.618;2023-11-21T08:01:25;7.03;;;4.45;;
39924;SDS011;25592;49.986;11.618;2023-11-21T08:04:12;9.32;;;4.68;;
39924;SDS011;25592;49.986;11.618;2023-11-21T08:06:57;6.40;;;4.35;;
39924;SDS011;25592;49.986;11.618;2023-11-21T08:09:43;10.57;;;4.47;;
39924;SDS011;25592;49.986;11.618;2023-11-21T08:12:29;7.22;;;3.95;;
39924;SDS011;25592;49.986;11.618;2023-11-21T08:15:14;6.75;;;4.10;;
39924;SDS011;25592;49.986;11.618;2023-11-21T08:18:00;6.97;;;4.57;;
39924;SDS011;25592;49.986;11.618;2023-11-21T08:20:45;5.15;;;3.20;;
39924;SDS011;25592;49.986;11.618;2023-11-21T08:23:33;7.80;;;4.10;;
39924;SDS011;25592;49.986;11.618;2023-11-21T08:26:18;9.07;;;3.95;;
39924;SDS011;25592;49.986;11.618;2023-11-21T08:29:04;7.57;;;4.55;;
39924;SDS011;25592;49.986;11.618;2023-11-21T08:31:51;5.60;;;3.20;;
39924;SDS011;25592;49.986;11.618;2023-11-21T08:34:37;7.53;;;3.70;;
39924;SDS011;25592;49.986;11.618;2023-11-21T08:37:24;6.82;;;3.10;;
39924;SDS011;25592;49.986;11.618;2023-11-21T08:40:11;6.00;;;3.45;;
39924;SDS011;25592;49.986;11.618;2023-11-21T08:43:01;7.28;;;3.58;;
39924;SDS011;25592;49.986;11.618;2023-11-21T08:45:49;5.38;;;3.53;;
39924;SDS011;25592;49.986;11.618;2023-11-21T08:48:35;7.80;;;4.05;;
39924;SDS011;25592;49.986;11.618;2023-11-21T08:51:21;6.60;;;3.90;;
39924;SDS011;25592;49.986;11.618;2023-11-21T08:54:06;5.95;;;3.28;;
39924;SDS011;25592;49.986;11.618;2023-11-21T08:56:56;4.63;;;2.53;;
39924;SDS011;25592;49.986;11.618;2023-11-21T08:59:42;5.22;;;2.78;;
39924;SDS011;25592;49.986;11.618;2023-11-21T09:02:28;5.93;;;3.17;;
39924;SDS011;25592;49.986;11.618;2023-11-21T09:05:13;8.35;;;5.13;;
39924;SDS011;25592;49.986;11.618;2023-11-21T09:07:59;11.70;;;6.75;;
39924;SDS011;25592;49.986;11.618;2023-11-21T09:10:45;10.07;;;6.10;;
39924;SDS011;25592;49.986;11.618;2023-11-21T09:13:32;6.15;;;3.67;;
39924;SDS011;25592;49.986;11.618;2023-11-21T09:16:17;6.15;;;2.95;;
39924;SDS011;25592;49.986;11.618;2023-11-21T09:19:03;5.20;;;3.00;;
39924;SDS011;25592;49.986;11.618;2023-11-21T09:21:50;5.40;;;2.50;;
39924;SDS011;25592;49.986;11.618;2023-11-21T09:24:35;6.20;;;2.83;;
39924;SDS011;25592;49.986;11.618;2023-11-21T09:27:22;8.98;;;2.90;;
39924;SDS011;25592;49.986;11.618;2023-11-21T09:30:08;7.72;;;3.58;;
39924;SDS011;25592;49.986;11.618;2023-11-21T09:32:56;6.72;;;2.70;;
39924;SDS011;25592;49.986;11.618;2023-11-21T09:35:43;6.70;;;3.28;;
39924;SDS011;25592;49.986;11.618;2023-11-21T09:38:28;5.00;;;2.60;;
39924;SDS011;25592;49.986;11.618;2023-11-21T09:41:17;4.38;;;2.53;;
39924;SDS011;25592;49.986;11.618;2023-11-21T09:44:22;4.40;;;2.53;;
39924;SDS011;25592;49.986;11.618;2023-11-21T09:47:30;5.22;;;2.45;;
39924;SDS011;25592;49.986;11.618;2023-11-21T09:50:18;6.13;;;2.97;;
39924;SDS011;25592;49.986;11.618;2023-11-21T09:53:19;5.22;;;2.60;;
39924;SDS011;25592;49.986;11.618;2023-11-21T09:56:07;5.55;;;2.75;;
39924;SDS011;25592;49.986;11.618;2023-11-21T09:58:55;6.70;;;2.72;;
39924;SDS011;25592;49.986;11.618;2023-11-21T10:01:42;7.93;;;3.47;;
39924;SDS011;25592;49.986;11.618;2023-11-21T10:04:27;8.10;;;3.90;;
39924;SDS011;25592;49.986;11.618;2023-11-21T10:07:14;6.55;;;2.72;;
39924;SDS011;25592;49.986;11.618;2023-11-21T10:10:02;5.22;;;2.50;;
39924;SDS011;25592;49.986;11.618;2023-11-21T10:12:50;6.85;;;3.42;;
39924;SDS011;25592;49.986;11.618;2023-11-21T10:15:39;11.68;;;3.45;;
39924;SDS011;25592;49.986;11.618;2023-11-21T10:18:29;6.18;;;3.38;;
39924;SDS011;25592;49.986;11.618;2023-11-21T10:21:15;6.35;;;2.97;;
39924;SDS011;25592;49.986;11.618;2023-11-21T10:24:01;5.32;;;2.63;;
39924;SDS011;25592;49.986;11.618;2023-11-21T10:26:47;7.38;;;3.70;;
39924;SDS011;25592;49.986;11.618;2023-11-21T10:29:38;8.35;;;3.65;;
39924;SDS011;25592;49.986;11.618;2023-11-21T10:32:27;5.30;;;3.13;;
39924;SDS011;25592;49.986;11.618;2023-11-21T10:35:15;4.80;;;2.80;;
39924;SDS011;25592;49.986;11.618;2023-11-21T10:38:00;6.97;;;3.30;;
39924;SDS011;25592;49.986;11.618;2023-11-21T10:40:46;9.93;;;3.17;;
39924;SDS011;25592;49.986;11.618;2023-11-21T10:43:32;3.90;;;2.47;;
39924;SDS011;25592;49.986;11.618;2023-11-21T10:46:20;6.10;;;2.53;;
39924;SDS011;25592;49.986;11.618;2023-11-21T10:49:06;4.05;;;2.38;;
39924;SDS011;25592;49.986;11.618;2023-11-21T10:51:52;5.18;;;2.13;;
39924;SDS011;25592;49.986;11.618;2023-11-21T10:54:39;6.93;;;2.08;;
39924;SDS011;25592;49.986;11.618;2023-11-21T10:57:24;5.25;;;2.92;;
39924;SDS011;25592;49.986;11.618;2023-11-21T11:00:10;3.95;;;2.17;;
39924;SDS011;25592;49.986;11.618;2023-11-21T11:02:58;3.97;;;2.22;;
39924;SDS011;25592;49.986;11.618;2023-11-21T11:05:45;5.10;;;2.28;;
39924;SDS011;25592;49.986;11.618;2023-11-21T11:08:39;7.28;;;3.60;;
39924;SDS011;25592;49.986;11.618;2023-11-21T11:11:25;5.35;;;2.30;;
39924;SDS011;25592;49.986;11.618;2023-11-21T11:14:11;8.57;;;3.38;;
39924;SDS011;25592;49.986;11.618;2023-11-21T11:16:57;7.72;;;3.05;;
39924;SDS011;25592;49.986;11.618;2023-11-21T11:19:44;8.57;;;2.88;;
39924;SDS011;25592;49.986;11.618;2023-11-21T11:23:13;6.63;;;2.22;;
39924;SDS011;25592;49.986;11.618;2023-11-21T11:29:01;5.68;;;1.90;;
39924;SDS011;25592;49.986;11.618;2023-11-21T11:32:02;3.35;;;1.80;;
39924;SDS011;25592;49.986;11.618;2023-11-21T11:35:16;4.88;;;2.50;;
39924;SDS011;25592;49.986;11.618;2023-11-21T11:38:08;5.53;;;2.53;;
39924;SDS011;25592;49.986;11.618;2023-11-21T11:40:56;8.07;;;2.00;;
39924;SDS011;25592;49.986;11.618;2023-11-21T11:43:41;5.07;;;2.75;;
39924;SDS011;25592;49.986;11.618;2023-11-21T11:46:40;6.45;;;2.20;;
39924;SDS011;25592;49.986;11.618;2023-11-21T11:49:32;5.25;;;2.30;;
39924;SDS011;25592;49.986;11.618;2023-11-21T11:55:22;10.23;;;2.83;;
39924;SDS011;25592;49.986;11.618;2023-11-21T11:58:08;4.50;;;1.80;;
39924;SDS011;25592;49.986;11.618;2023-11-21T12:00:54;4.32;;;1.88;;
39924;SDS011;25592;49.986;11.618;2023-11-21T12:03:40;9.20;;;2.45;;
39924;SDS011;25592;49.986;11.618;2023-11-21T12:06:35;5.82;;;2.17;;
39924;SDS011;25592;49.986;11.618;2023-11-21T12:09:21;4.93;;;2.15;;
39924;SDS011;25592;49.986;11.618;2023-11-21T12:12:08;4.93;;;2.30;;
39924;SDS011;25592;49.986;11.618;2023-11-21T12:14:53;7.57;;;2.50;;
39924;SDS011;25592;49.986;11.618;2023-11-21T12:17:40;7.20;;;2.47;;
39924;SDS011;25592;49.986;11.618;2023-11-21T12:20:28;10.38;;;3.00;;
39924;SDS011;25592;49.986;11.618;2023-11-21T12:23:14;9.95;;;2.53;;
39924;SDS011;25592;49.986;11.618;2023-11-21T12:26:01;8.30;;;2.50;;
39924;SDS011;25592;49.986;11.618;2023-11-21T12:28:51;10.60;;;2.47;;
39924;SDS011;25592;49.986;11.618;2023-11-21T12:31:40;9.23;;;2.67;;
39924;SDS011;25592;49.986;11.618;2023-11-21T12:34:26;8.70;;;3.03;;
39924;SDS011;25592;49.986;11.618;2023-11-21T12:37:11;15.20;;;3.13;;
39924;SDS011;25592;49.986;11.618;2023-11-21T12:39:57;10.98;;;2.63;;
39924;SDS011;25592;49.986;11.618;2023-11-21T12:42:43;6.20;;;2.00;;
39924;SDS011;25592;49.986;11.618;2023-11-21T12:45:31;6.03;;;1.88;;
39924;SDS011;25592;49.986;11.618;2023-11-21T12:48:16;10.80;;;2.55;;
39924;SDS011;25592;49.986;11.618;2023-11-21T12:51:09;8.30;;;2.38;;
39924;SDS011;25592;49.986;11.618;2023-11-21T12:54:01;12.48;;;4.15;;
39924;SDS011;25592;49.986;11.618;2023-11-21T12:56:46;10.02;;;3.33;;
39924;SDS011;25592;49.986;11.618;2023-11-21T12:59:32;8.40;;;2.30;;
39924;SDS011;25592;49.986;11.618;2023-11-21T13:02:18;5.13;;;2.05;;
39924;SDS011;25592;49.986;11.618;2023-11-21T13:05:04;7.20;;;2.25;;
39924;SDS011;25592;49.986;11.618;2023-11-21T13:07:58;9.85;;;3.08;;
39924;SDS011;25592;49.986;11.618;2023-11-21T13:10:51;9.07;;;2.85;;
39924;SDS011;25592;49.986;11.618;2023-11-21T13:13:41;5.88;;;2.25;;
39924;SDS011;25592;49.986;11.618;2023-11-21T13:16:30;12.43;;;2.47;;
39924;SDS011;25592;49.986;11.618;2023-11-21T13:19:16;7.95;;;2.47;;
39924;SDS011;25592;49.986;11.618;2023-11-21T13:22:01;9.95;;;2.47;;
39924;SDS011;25592;49.986;11.618;2023-11-21T13:24:49;12.57;;;2.60;;
39924;SDS011;25592;49.986;11.618;2023-11-21T13:27:34;7.40;;;2.95;;
39924;SDS011;25592;49.986;11.618;2023-11-21T13:30:22;8.18;;;2.70;;
39924;SDS011;25592;49.986;11.618;2023-11-21T13:33:11;11.75;;;3.28;;
39924;SDS011;25592;49.986;11.618;2023-11-21T13:36:05;7.70;;;3.20;;
39924;SDS011;25592;49.986;11.618;2023-11-21T13:38:53;10.02;;;3.50;;
39924;SDS011;25592;49.986;11.618;2023-11-21T13:41:39;6.78;;;2.60;;
39924;SDS011;25592;49.986;11.618;2023-11-21T13:44:26;7.75;;;2.63;;
39924;SDS011;25592;49.986;11.618;2023-11-21T13:47:19;12.23;;;2.88;;
39924;SDS011;25592;49.986;11.618;2023-11-21T13:50:07;7.75;;;2.40;;
39924;SDS011;25592;49.986;11.618;2023-11-21T13:53:02;10.00;;;2.20;;
39924;SDS011;25592;49.986;11.618;2023-11-21T13:56:02;10.75;;;3.50;;
39924;SDS011;25592;49.986;11.618;2023-11-21T13:58:47;11.70;;;3.60;;
39924;SDS011;25592;49.986;11.618;2023-11-21T14:01:36;6.35;;;2.50;;
39924;SDS011;25592;49.986;11.618;2023-11-21T14:04:48;12.43;;;3.00;;
39924;SDS011;25592;49.986;11.618;2023-11-21T14:07:41;9.07;;;3.28;;
39924;SDS011;25592;49.986;11.618;2023-11-21T14:10:32;8.37;;;3.33;;
39924;SDS011;25592;49.986;11.618;2023-11-21T14:13:25;5.93;;;2.38;;
39924;SDS011;25592;49.986;11.618;2023-11-21T14:16:13;7.30;;;2.63;;
39924;SDS011;25592;49.986;11.618;2023-11-21T14:19:06;10.27;;;3.40;;
39924;SDS011;25592;49.986;11.618;2023-11-21T14:22:00;16.17;;;4.60;;
39924;SDS011;25592;49.986;11.618;2023-11-21T14:24:46;14.05;;;4.45;;
39924;SDS011;25592;49.986;11.618;2023-11-21T14:27:32;14.05;;;3.90;;
39924;SDS011;25592;49.986;11.618;2023-11-21T14:30:20;8.00;;;3.00;;
39924;SDS011;25592;49.986;11.618;2023-11-21T14:33:07;8.18;;;3.38;;
39924;SDS011;25592;49.986;11.618;2023-11-21T14:35:54;10.23;;;3.50;;
39924;SDS011;25592;49.986;11.618;2023-11-21T14:38:40;5.97;;;3.03;;
39924;SDS011;25592;49.986;11.618;2023-11-21T14:41:25;8.80;;;3.13;;
39924;SDS011;25592;49.986;11.618;2023-11-21T14:44:13;9.52;;;2.80;;
39924;SDS011;25592;49.986;11.618;2023-11-21T14:47:00;10.50;;;3.35;;
39924;SDS011;25592;49.986;11.618;2023-11-21T14:49:50;8.55;;;3.00;;
39924;SDS011;25592;49.986;11.618;2023-11-21T14:52:40;8.10;;;2.85;;
39924;SDS011;25592;49.986;11.618;2023-11-21T14:55:40;7.45;;;2.60;;
39924;SDS011;25592;49.986;11.618;2023-11-21T14:58:34;6.18;;;2.42;;
39924;SDS011;25592;49.986;11.618;2023-11-21T15:01:23;5.80;;;2.42;;
39924;SDS011;25592;49.986;11.618;2023-11-21T15:04:19;6.45;;;2.50;;
39924;SDS011;25592;49.986;11.618;2023-11-21T15:07:15;14.93;;;4.13;;
39924;SDS011;25592;49.986;11.618;2023-11-21T15:10:00;6.72;;;2.88;;
39924;SDS011;25592;49.986;11.618;2023-11-21T15:12:45;5.05;;;2.05;;
39924;SDS011;25592;49.986;11.618;2023-11-21T15:15:31;5.10;;;1.98;;
39924;SDS011;25592;49.986;11.618;2023-11-21T15:18:20;4.60;;;1.85;;
39924;SDS011;25592;49.986;11.618;2023-11-21T15:21:06;3.50;;;1.80;;
39924;SDS011;25592;49.986;11.618;2023-11-21T15:23:56;6.20;;;1.90;;
39924;SDS011;25592;49.986;11.618;2023-11-21T15:26:42;5.95;;;2.83;;
39924;SDS011;25592;49.986;11.618;2023-11-21T15:29:28;7.38;;;2.08;;
39924;SDS011;25592;49.986;11.618;2023-11-21T15:32:13;6.18;;;2.15;;
39924;SDS011;25592;49.986;11.618;2023-11-21T15:34:58;7.15;;;1.63;;
39924;SDS011;25592;49.986;11.618;2023-11-21T15:37:44;10.00;;;2.40;;
39924;SDS011;25592;49.986;11.618;2023-11-21T15:40:30;6.55;;;2.45;;
39924;SDS011;25592;49.986;11.618;2023-11-21T15:43:16;6.72;;;2.95;;
39924;SDS011;25592;49.986;11.618;2023-11-21T15:46:01;6.40;;;2.28;;
39924;SDS011;25592;49.986;11.618;2023-11-21T15:48:52;7.22;;;2.92;;
39924;SDS011;25592;49.986;11.618;2023-11-21T15:51:39;12.27;;;3.25;;
39924;SDS011;25592;49.986;11.618;2023-11-21T15:54:29;15.35;;;5.22;;
39924;SDS011;25592;49.986;11.618;2023-11-21T15:57:15;10.20;;;3.83;;
39924;SDS011;25592;49.986;11.618;2023-11-21T16:00:02;11.18;;;4.13;;
39924;SDS011;25592;49.986;11.618;2023-11-21T16:02:55;6.93;;;3.47;;
39924;SDS011;25592;49.986;11.618;2023-11-21T16:05:42;11.15;;;3.95;;
39924;SDS011;25592;49.986;11.618;2023-11-21T16:08:28;7.90;;;2.92;;
39924;SDS011;25592;49.986;11.618;2023-11-21T16:11:14;5.13;;;2.67;;
39924;SDS011;25592;49.986;11.618;2023-11-21T16:13:59;8.02;;;3.67;;
39924;SDS011;25592;49.986;11.618;2023-11-21T16:16:45;10.52;;;5.63;;
39924;SDS011;25592;49.986;11.618;2023-11-21T16:19:30;10.18;;;5.53;;
39924;SDS011;25592;49.986;11.618;2023-11-21T16:22:16;8.05;;;4.50;;
39924;SDS011;25592;49.986;11.618;2023-11-21T16:25:01;4.85;;;2.78;;
39924;SDS011;25592;49.986;11.618;2023-11-21T16:27:49;5.75;;;1.90;;
39924;SDS011;25592;49.986;11.618;2023-11-21T16:30:34;6.15;;;1.75;;
39924;SDS011;25592;49.986;11.618;2023-11-21T16:33:20;3.80;;;1.92;;
39924;SDS011;25592;49.986;11.618;2023-11-21T16:36:05;4.82;;;1.80;;
39924;SDS011;25592;49.986;11.618;2023-11-21T16:38:51;3.75;;;1.65;;